aviador You're here:

KGON Decoded Metar

GROTON/NEW LONDO in CT, USA
Report Time2018-02-22 13:56:00
UTC Time2018-02-22 14:50:48
Flight Rules vfr VFR
Wind030° at 07 kt
W.Decomp.*RWY 05: 7.0 kt HW 0.7 kt LCW
RWY 33: 1.9 kt HW 6.7 kt RCW
W.Rank030° ranks 20
Current wind is below 030° avg. (7.2)
Visibility9999 m
Phenomena:N/A
Clouds:Overcast 065 Hf
Expected CloudBase > 3,600 ft AGL from Temp-Dew spread
Ceiling6,500 ft
Temp08°C (ISA -7)
Dew Point-1°C (53% RH)
AAT3.4°C
QNH1036 hPa
Density Alt-1,522 ft
Elevation10 ft
Report Wrong Elevation
Raw Report
KGON 221356Z 03007KT 10SM OVC065 08/M01 A3059 RMK AO2 SLP360
T00781011=

Extra information for KGON:More info

Metar Taf Metar & Taf Last 4 Metars F.Rules Stats Wind Profile Meteogram Temp Stats Airport Information Weather charts Add Link Nearby VenuesMetar ALERT Operation Metar Decoded Social comments

AIRNAV info for KGON